Time;durP1;ratioP1;P1;durP2;ratioP2;P2;SDS_P1;SDS_P2;PMS_P1;PMS_P2;Temp;Humidity;BMP_temperature;BMP_pressure;BME280_temperature;BME280_humidity;BME280_pressure;Samples;Min_cycle;Max_cycle;Signal;HPM_P1;HPM_P2
2022/02/01 00:02:02;;;;;;;58.70;13.68;;;;;;;;;;5014030;28;20049;-70
2022/02/01 00:04:37;;;;;;;34.85;12.85;;;;;;;;;;4994196;28;20081;-69
2022/02/01 00:12:40;;;;;;;60.67;18.65;;;;;;;;;;5012087;28;20061;-71
2022/02/01 00:36:27;;;;;;;46.70;15.77;;;;;;;;;;5012925;28;20559;-68
2022/02/01 00:39:05;;;;;;;52.77;16.20;;;;;;;;;;5013215;28;20075;-68
2022/02/01 00:41:34;;;;;;;54.17;18.88;;;;;;;;;;5012603;28;20753;-68
2022/02/01 00:44:01;;;;;;;45.53;17.05;;;;;;;;;;5012527;28;20033;-68
2022/02/01 00:46:27;;;;;;;50.05;16.88;;;;;;;;;;5012804;28;20480;-68
2022/02/01 00:48:53;;;;;;;46.90;19.33;;;;;;;;;;5012478;28;20112;-67
2022/02/01 00:51:20;;;;;;;50.70;17.65;;;;;;;;;;5012450;28;20044;-68
2022/02/01 00:53:46;;;;;;;55.92;16.67;;;;;;;;;;5012226;28;20551;-67
2022/02/01 00:56:14;;;;;;;50.90;17.02;;;;;;;;;;5012556;28;20159;-68
2022/02/01 00:58:41;;;;;;;49.97;17.27;;;;;;;;;;5012440;28;20444;-68
2022/02/01 01:01:07;;;;;;;47.13;16.58;;;;;;;;;;4991902;28;20468;-68
2022/02/01 01:03:33;;;;;;;49.85;17.30;;;;;;;;;;5004852;28;20534;-68
2022/02/01 01:05:59;;;;;;;52.83;17.30;;;;;;;;;;4995488;28;20088;-67
2022/02/01 01:08:25;;;;;;;53.95;15.82;;;;;;;;;;5005580;28;20062;-68
2022/02/01 01:10:51;;;;;;;52.28;17.50;;;;;;;;;;5012280;28;20026;-69
2022/02/01 01:16:20;;;;;;;56.60;17.17;;;;;;;;;;5012517;28;20122;-69
2022/02/01 01:53:09;;;;;;;48.35;17.65;;;;;;;;;;5012547;28;20049;-70
2022/02/01 01:54:19;;;;;;;47.25;16.33;;;;;;;;;;4992492;28;20026;-69
2022/02/01 01:56:45;;;;;;;47.63;16.38;;;;;;;;;;4992315;28;20077;-68
2022/02/01 01:59:11;;;;;;;44.63;16.13;;;;;;;;;;4992267;28;20040;-69
2022/02/01 02:01:39;;;;;;;46.05;15.68;;;;;;;;;;4992337;28;20129;-71
2022/02/01 02:04:05;;;;;;;49.15;16.83;;;;;;;;;;5009427;28;20029;-69
2022/02/01 02:06:31;;;;;;;54.25;17.40;;;;;;;;;;5010847;28;20033;-69
2022/02/01 02:08:59;;;;;;;44.63;17.92;;;;;;;;;;5011633;28;20116;-68
2022/02/01 02:16:37;;;;;;;64.18;18.80;;;;;;;;;;5015978;28;20037;-69
2022/02/01 02:19:04;;;;;;;48.10;17.80;;;;;;;;;;5015834;28;20113;-69
2022/02/01 02:21:30;;;;;;;55.92;18.33;;;;;;;;;;5015752;28;20122;-65
2022/02/01 02:23:56;;;;;;;43.47;17.33;;;;;;;;;;5015318;28;20053;-69
2022/02/01 02:26:22;;;;;;;61.30;18.95;;;;;;;;;;5015515;28;20049;-68
2022/02/01 02:28:48;;;;;;;55.22;17.45;;;;;;;;;;5015611;28;20057;-68
2022/02/01 02:31:15;;;;;;;43.83;16.38;;;;;;;;;;5015438;28;20029;-69
2022/02/01 02:33:42;;;;;;;52.55;17.98;;;;;;;;;;5015492;28;20474;-68
2022/02/01 02:36:14;;;;;;;51.83;16.70;;;;;;;;;;5015805;28;20026;-68
2022/02/01 02:38:52;;;;;;;47.33;16.40;;;;;;;;;;5015811;28;20495;-69
2022/02/01 02:46:30;;;;;;;50.92;16.42;;;;;;;;;;5015795;28;20053;-69
2022/02/01 02:48:56;;;;;;;42.58;15.25;;;;;;;;;;5015423;28;20416;-69
2022/02/01 02:51:22;;;;;;;39.05;14.88;;;;;;;;;;5015194;28;20034;-69
2022/02/01 02:53:48;;;;;;;46.92;14.63;;;;;;;;;;5014892;28;20030;-69
2022/02/01 02:56:14;;;;;;;36.85;13.15;;;;;;;;;;5015358;28;20063;-67
2022/02/01 02:58:41;;;;;;;37.28;14.13;;;;;;;;;;5013758;28;20395;-69
2022/02/01 03:01:07;;;;;;;42.65;13.80;;;;;;;;;;5014739;28;20164;-68
2022/02/01 03:03:33;;;;;;;42.13;12.63;;;;;;;;;;5014639;28;20069;-68
2022/02/01 03:05:59;;;;;;;27.92;10.93;;;;;;;;;;5014783;28;20464;-69
2022/02/01 03:08:26;;;;;;;27.45;10.82;;;;;;;;;;5014919;28;20036;-69
2022/02/01 03:10:52;;;;;;;31.40;11.77;;;;;;;;;;5014469;28;20018;-71
2022/02/01 03:13:24;;;;;;;26.50;10.43;;;;;;;;;;5014346;28;20037;-69
2022/02/01 03:21:37;;;;;;;26.70;10.65;;;;;;;;;;5012405;28;20033;-71
2022/02/01 03:24:03;;;;;;;31.33;11.32;;;;;;;;;;5013253;28;20419;-71
2022/02/01 03:26:29;;;;;;;32.80;11.95;;;;;;;;;;5014245;28;20026;-69
2022/02/01 03:28:55;;;;;;;33.40;10.70;;;;;;;;;;5014520;28;20061;-71
2022/02/01 03:31:21;;;;;;;28.80;10.98;;;;;;;;;;5013825;28;20121;-68
2022/02/01 03:33:48;;;;;;;28.63;11.63;;;;;;;;;;5013788;28;20321;-69
2022/02/01 03:36:14;;;;;;;30.85;12.25;;;;;;;;;;5013904;28;20324;-70
2022/02/01 03:38:41;;;;;;;32.45;13.65;;;;;;;;;;5014178;28;20112;-69
2022/02/01 03:41:07;;;;;;;32.83;14.23;;;;;;;;;;5014014;28;20026;-69
2022/02/01 03:43:33;;;;;;;33.55;13.93;;;;;;;;;;5013776;28;20491;-67
2022/02/01 03:45:59;;;;;;;35.45;13.85;;;;;;;;;;5012494;28;20119;-68
2022/02/01 03:48:24;;;;;;;32.85;14.70;;;;;;;;;;5012761;28;20337;-68
2022/02/01 03:50:50;;;;;;;31.20;14.40;;;;;;;;;;5013846;28;20468;-68
2022/02/01 03:53:17;;;;;;;32.58;14.88;;;;;;;;;;5013502;28;20018;-68
2022/02/01 03:55:44;;;;;;;35.05;15.52;;;;;;;;;;5013616;28;20022;-68
2022/02/01 03:58:09;;;;;;;32.95;15.23;;;;;;;;;;5012253;28;20022;-68
2022/02/01 04:00:36;;;;;;;34.90;15.32;;;;;;;;;;5010257;28;20542;-65
2022/02/01 04:03:04;;;;;;;41.13;16.55;;;;;;;;;;5013229;28;20085;-68
2022/02/01 04:05:33;;;;;;;37.53;17.05;;;;;;;;;;5013515;28;20029;-68
2022/02/01 04:07:59;;;;;;;35.38;17.08;;;;;;;;;;5008774;28;20058;-68
2022/02/01 04:10:25;;;;;;;40.42;16.45;;;;;;;;;;4992058;28;20030;-70
2022/02/01 04:12:52;;;;;;;28.65;15.25;;;;;;;;;;4991595;28;20498;-69
2022/02/01 04:15:20;;;;;;;38.15;17.58;;;;;;;;;;4993066;28;20019;-68
2022/02/01 04:17:46;;;;;;;41.38;18.02;;;;;;;;;;4993618;28;20084;-69
2022/02/01 04:20:12;;;;;;;43.92;18.80;;;;;;;;;;4993245;28;20026;-69
2022/02/01 04:22:39;;;;;;;42.55;19.67;;;;;;;;;;4996101;28;20061;-68
2022/02/01 04:25:04;;;;;;;47.67;20.80;;;;;;;;;;5012895;28;20033;-68
2022/02/01 04:27:31;;;;;;;48.78;20.70;;;;;;;;;;5013308;28;20384;-68
2022/02/01 04:30:07;;;;;;;50.90;22.80;;;;;;;;;;5012822;28;20046;-67
2022/02/01 04:32:37;;;;;;;50.20;20.90;;;;;;;;;;5012923;28;20033;-69
2022/02/01 04:35:04;;;;;;;43.50;19.38;;;;;;;;;;5011618;28;20033;-71
2022/02/01 04:37:31;;;;;;;44.88;21.27;;;;;;;;;;5012635;28;20025;-69
2022/02/01 04:39:57;;;;;;;41.42;20.00;;;;;;;;;;5012648;28;20392;-69
2022/02/01 04:42:25;;;;;;;49.03;21.60;;;;;;;;;;5010923;28;20033;-69
2022/02/01 04:44:51;;;;;;;37.33;19.35;;;;;;;;;;5012655;28;20029;-68
2022/02/01 04:47:17;;;;;;;47.47;19.17;;;;;;;;;;5012887;28;20105;-68
2022/02/01 04:49:44;;;;;;;43.33;19.38;;;;;;;;;;5012813;28;20128;-68
2022/02/01 04:52:10;;;;;;;34.42;18.80;;;;;;;;;;5022695;23;20078;-70
2022/02/01 04:54:36;;;;;;;37.60;18.60;;;;;;;;;;5010116;28;20082;-71
2022/02/01 04:57:02;;;;;;;34.00;18.05;;;;;;;;;;5012665;28;20026;-72
2022/02/01 04:59:28;;;;;;;37.20;18.20;;;;;;;;;;5012354;28;20026;-72
2022/02/01 05:01:54;;;;;;;37.20;17.15;;;;;;;;;;5012462;28;20040;-72
2022/02/01 05:04:20;;;;;;;33.30;17.05;;;;;;;;;;4992263;28;20058;-71
2022/02/01 05:06:48;;;;;;;36.72;16.52;;;;;;;;;;4992566;28;20037;-72
2022/02/01 05:09:14;;;;;;;28.98;16.35;;;;;;;;;;4992214;28;20078;-71
2022/02/01 05:11:40;;;;;;;35.20;16.38;;;;;;;;;;4992775;28;20400;-71
2022/02/01 05:14:16;;;;;;;41.85;18.20;;;;;;;;;;4992512;28;20049;-71
2022/02/01 05:19:09;;;;;;;29.13;15.65;;;;;;;;;;4992446;28;20031;-70
2022/02/01 05:21:37;;;;;;;33.45;16.85;;;;;;;;;;4992003;28;20022;-72
2022/02/01 05:24:04;;;;;;;29.40;15.27;;;;;;;;;;4989765;28;20038;-72
2022/02/01 05:26:32;;;;;;;32.63;15.27;;;;;;;;;;4991530;28;20023;-72
2022/02/01 05:28:58;;;;;;;30.75;13.60;;;;;;;;;;4990750;28;20389;-71
2022/02/01 05:31:25;;;;;;;26.98;16.05;;;;;;;;;;4990805;28;20152;-71
2022/02/01 05:33:51;;;;;;;26.27;14.48;;;;;;;;;;4990596;28;20046;-71
2022/02/01 05:36:17;;;;;;;31.85;15.30;;;;;;;;;;4991423;28;20085;-71
2022/02/01 05:38:48;;;;;;;28.05;14.20;;;;;;;;;;4992334;28;20045;-73
2022/02/01 05:41:14;;;;;;;29.55;14.07;;;;;;;;;;5003545;28;20030;-70
2022/02/01 05:43:42;;;;;;;30.58;13.55;;;;;;;;;;5011704;28;20131;-71
2022/02/01 05:46:09;;;;;;;27.00;12.55;;;;;;;;;;5013189;28;20026;-71
2022/02/01 05:48:35;;;;;;;30.45;13.32;;;;;;;;;;5015808;28;20026;-71
2022/02/01 05:51:01;;;;;;;24.67;13.80;;;;;;;;;;5015595;28;20120;-71
2022/02/01 05:53:28;;;;;;;26.08;12.73;;;;;;;;;;5012701;28;20022;-71
2022/02/01 05:55:54;;;;;;;27.88;13.40;;;;;;;;;;5015954;28;20070;-71
2022/02/01 05:58:21;;;;;;;26.38;12.75;;;;;;;;;;5014204;28;20050;-71
2022/02/01 06:00:48;;;;;;;27.52;12.40;;;;;;;;;;5015402;28;20025;-71
2022/02/01 06:03:14;;;;;;;28.65;13.88;;;;;;;;;;5004473;28;20492;-71
2022/02/01 06:05:41;;;;;;;27.98;13.52;;;;;;;;;;4995939;28;20477;-71
2022/02/01 06:08:07;;;;;;;28.88;13.55;;;;;;;;;;4995762;28;20104;-72
2022/02/01 06:10:33;;;;;;;33.33;13.57;;;;;;;;;;4994212;28;20484;-72
2022/02/01 06:12:59;;;;;;;27.15;12.75;;;;;;;;;;4995591;28;20046;-71
2022/02/01 06:15:26;;;;;;;28.65;13.70;;;;;;;;;;4995396;28;20019;-70
2022/02/01 06:17:52;;;;;;;21.95;12.70;;;;;;;;;;4995158;28;20488;-72
2022/02/01 06:20:18;;;;;;;23.95;11.70;;;;;;;;;;4995520;28;20097;-72
2022/02/01 06:22:44;;;;;;;23.10;11.55;;;;;;;;;;4994991;28;20089;-71
2022/02/01 06:25:10;;;;;;;23.30;11.93;;;;;;;;;;4995245;28;20030;-71
2022/02/01 06:27:37;;;;;;;23.90;11.18;;;;;;;;;;4993817;28;20129;-72
2022/02/01 06:30:04;;;;;;;25.40;12.38;;;;;;;;;;4993982;28;20076;-71
2022/02/01 06:32:31;;;;;;;22.90;11.50;;;;;;;;;;4994905;28;20026;-71
2022/02/01 06:34:57;;;;;;;20.33;11.32;;;;;;;;;;4995237;28;20388;-70
2022/02/01 06:37:23;;;;;;;27.17;11.70;;;;;;;;;;4993627;28;20023;-71
2022/02/01 06:39:49;;;;;;;24.70;11.65;;;;;;;;;;4994650;28;20022;-72
2022/02/01 06:42:16;;;;;;;26.08;12.57;;;;;;;;;;5014608;28;20033;-71
2022/02/01 06:44:42;;;;;;;20.10;11.27;;;;;;;;;;5013138;28;20018;-70
2022/02/01 06:47:08;;;;;;;20.20;11.23;;;;;;;;;;5014733;28;20104;-70
2022/02/01 06:49:34;;;;;;;22.73;11.10;;;;;;;;;;5014748;28;20112;-71
2022/02/01 06:52:01;;;;;;;21.38;11.80;;;;;;;;;;5011747;28;20060;-71
2022/02/01 06:54:27;;;;;;;22.48;10.73;;;;;;;;;;5014447;28;20022;-71
2022/02/01 06:56:53;;;;;;;18.73;10.88;;;;;;;;;;5014734;28;20029;-71
2022/02/01 06:59:19;;;;;;;23.02;11.10;;;;;;;;;;5013626;28;20026;-72
2022/02/01 07:01:45;;;;;;;23.20;10.77;;;;;;;;;;5014258;28;20397;-71
2022/02/01 07:04:11;;;;;;;21.83;11.77;;;;;;;;;;4994096;28;20384;-71
2022/02/01 07:06:37;;;;;;;24.67;11.40;;;;;;;;;;4993306;28;20034;-71
2022/02/01 07:09:04;;;;;;;18.58;11.40;;;;;;;;;;4992941;28;20026;-71
2022/02/01 07:11:30;;;;;;;33.72;12.60;;;;;;;;;;4991965;28;20481;-71
2022/02/01 07:13:57;;;;;;;23.40;12.07;;;;;;;;;;4994242;28;20125;-71
2022/02/01 07:16:23;;;;;;;28.98;12.30;;;;;;;;;;4994464;28;20101;-71
2022/02/01 07:18:49;;;;;;;24.30;13.13;;;;;;;;;;4994572;28;20085;-72
2022/02/01 07:21:18;;;;;;;27.23;13.15;;;;;;;;;;4994293;28;20034;-73
2022/02/01 07:23:44;;;;;;;29.90;13.32;;;;;;;;;;5006536;28;20064;-71
2022/02/01 07:26:10;;;;;;;24.17;12.77;;;;;;;;;;5005640;28;20397;-71
2022/02/01 07:28:36;;;;;;;28.15;13.45;;;;;;;;;;5005347;28;20057;-71
2022/02/01 07:31:03;;;;;;;27.30;14.27;;;;;;;;;;5012711;28;20029;-72
2022/02/01 07:33:31;;;;;;;28.80;14.38;;;;;;;;;;5014038;28;20383;-71
2022/02/01 07:35:58;;;;;;;31.55;15.27;;;;;;;;;;5013621;28;20120;-71
2022/02/01 07:38:25;;;;;;;34.75;16.25;;;;;;;;;;5005638;28;20022;-71
2022/02/01 07:40:55;;;;;;;37.25;15.90;;;;;;;;;;4994146;28;20030;-71
2022/02/01 07:43:22;;;;;;;33.80;16.27;;;;;;;;;;4993522;28;20034;-71
2022/02/01 07:45:49;;;;;;;34.00;15.57;;;;;;;;;;4993466;28;20472;-71
2022/02/01 07:48:15;;;;;;;36.85;15.90;;;;;;;;;;4993594;28;20113;-72
2022/02/01 07:50:43;;;;;;;32.78;16.55;;;;;;;;;;4993574;28;20089;-71
2022/02/01 07:53:09;;;;;;;27.80;14.88;;;;;;;;;;4990628;28;20061;-71
2022/02/01 07:55:35;;;;;;;33.83;15.70;;;;;;;;;;4993272;28;20477;-71
2022/02/01 07:58:01;;;;;;;30.60;15.95;;;;;;;;;;4992040;28;20096;-71
2022/02/01 08:00:28;;;;;;;34.72;15.80;;;;;;;;;;4995281;28;20026;-70
2022/02/01 08:02:57;;;;;;;32.03;14.88;;;;;;;;;;4993768;28;20026;-76
2022/02/01 08:05:25;;;;;;;27.88;13.27;;;;;;;;;;4994106;28;20435;-76
2022/02/01 08:07:51;;;;;;;31.60;13.73;;;;;;;;;;4992553;28;20027;-75
2022/02/01 08:10:17;;;;;;;32.92;16.77;;;;;;;;;;4992316;28;20025;-75
2022/02/01 08:16:07;;;;;;;37.33;19.00;;;;;;;;;;4993700;28;20022;-74
2022/02/01 08:20:53;;;;;;;180.40;77.22;;;;;;;;;;4994029;28;20034;-74
2022/02/01 08:23:19;;;;;;;160.05;65.55;;;;;;;;;;4992077;28;20254;-74
2022/02/01 08:25:46;;;;;;;81.10;34.38;;;;;;;;;;4993567;28;20134;-74
2022/02/01 08:28:12;;;;;;;63.38;28.65;;;;;;;;;;4993618;28;20030;-74
2022/02/01 08:30:37;;;;;;;103.20;40.75;;;;;;;;;;4993277;28;20031;-73
2022/02/01 08:33:04;;;;;;;94.97;38.80;;;;;;;;;;4993037;28;20449;-74
2022/02/01 08:35:30;;;;;;;92.47;38.95;;;;;;;;;;4993455;28;20040;-75
2022/02/01 08:37:56;;;;;;;70.97;27.52;;;;;;;;;;4993470;28;20030;-72
2022/02/01 08:40:23;;;;;;;61.67;24.25;;;;;;;;;;4992989;28;20033;-73
2022/02/01 08:42:50;;;;;;;100.78;38.20;;;;;;;;;;4992846;28;20037;-72
2022/02/01 08:45:22;;;;;;;83.95;31.02;;;;;;;;;;4993091;28;20382;-73
2022/02/01 08:47:49;;;;;;;92.35;32.55;;;;;;;;;;4993002;28;20122;-74
2022/02/01 08:50:17;;;;;;;99.53;41.22;;;;;;;;;;4991740;28;20023;-74
2022/02/01 08:52:47;;;;;;;79.40;31.95;;;;;;;;;;4988481;28;20400;-73
2022/02/01 08:55:34;;;;;;;42.72;17.13;;;;;;;;;;4992945;28;20128;-73
2022/02/01 08:58:01;;;;;;;84.85;31.63;;;;;;;;;;4992543;28;20022;-74
2022/02/01 09:00:28;;;;;;;53.17;21.23;;;;;;;;;;4994379;28;20152;-74
2022/02/01 09:02:54;;;;;;;74.18;28.63;;;;;;;;;;4995127;28;20042;-73
2022/02/01 09:05:21;;;;;;;40.22;14.93;;;;;;;;;;4995402;28;20034;-73
2022/02/01 09:07:47;;;;;;;109.63;42.92;;;;;;;;;;4992611;28;20171;-75
2022/02/01 09:10:13;;;;;;;72.15;26.52;;;;;;;;;;4994000;28;20030;-75
2022/02/01 09:12:39;;;;;;;66.50;24.98;;;;;;;;;;4993022;28;20029;-73
2022/02/01 09:15:05;;;;;;;48.35;17.42;;;;;;;;;;4992681;28;20395;-75
2022/02/01 09:17:34;;;;;;;58.15;23.63;;;;;;;;;;4993246;28;20065;-75
2022/02/01 09:20:00;;;;;;;36.45;15.07;;;;;;;;;;5003951;28;20029;-71
2022/02/01 09:22:27;;;;;;;49.22;17.67;;;;;;;;;;5011604;28;20053;-71
2022/02/01 09:24:53;;;;;;;81.40;33.95;;;;;;;;;;5011743;28;20022;-73
2022/02/01 09:27:19;;;;;;;29.65;12.50;;;;;;;;;;5011707;28;20053;-73
2022/02/01 09:29:45;;;;;;;31.88;11.32;;;;;;;;;;5011504;28;20483;-71
2022/02/01 09:32:12;;;;;;;42.63;17.10;;;;;;;;;;5010979;28;20372;-72
2022/02/01 09:34:38;;;;;;;45.65;16.35;;;;;;;;;;5003183;28;20396;-74
2022/02/01 09:37:04;;;;;;;40.78;16.17;;;;;;;;;;5003580;28;20019;-73
2022/02/01 09:39:32;;;;;;;25.30;11.35;;;;;;;;;;4992127;28;20459;-74
2022/02/01 09:42:00;;;;;;;64.30;27.23;;;;;;;;;;4991894;28;20130;-73
2022/02/01 09:44:26;;;;;;;55.67;23.25;;;;;;;;;;4991779;28;20452;-72
2022/02/01 09:46:53;;;;;;;52.85;22.67;;;;;;;;;;4991223;28;20022;-72
2022/02/01 09:49:19;;;;;;;34.20;10.95;;;;;;;;;;4991478;28;20464;-73
2022/02/01 09:51:51;;;;;;;42.47;13.25;;;;;;;;;;4991328;28;20030;-73
2022/02/01 09:54:17;;;;;;;63.15;20.83;;;;;;;;;;4991308;28;20030;-73
2022/02/01 09:56:43;;;;;;;89.32;29.10;;;;;;;;;;4991553;28;20014;-73
2022/02/01 09:59:16;;;;;;;91.82;35.63;;;;;;;;;;4991701;28;20062;-71
2022/02/01 10:01:44;;;;;;;64.35;23.75;;;;;;;;;;4992141;28;20049;-71
2022/02/01 10:04:11;;;;;;;62.08;14.80;;;;;;;;;;4991803;28;20468;-70
2022/02/01 10:06:38;;;;;;;44.35;18.17;;;;;;;;;;4991799;28;20473;-71
2022/02/01 10:09:15;;;;;;;41.58;15.50;;;;;;;;;;4990964;28;20038;-71
2022/02/01 10:11:45;;;;;;;22.17;7.95;;;;;;;;;;4990567;28;20058;-71
2022/02/01 10:14:18;;;;;;;18.83;5.93;;;;;;;;;;4985756;28;20034;-73
2022/02/01 10:16:51;;;;;;;31.02;9.75;;;;;;;;;;4990141;28;20200;-71
2022/02/01 10:19:18;;;;;;;22.40;7.38;;;;;;;;;;4991934;28;20029;-72
2022/02/01 10:21:55;;;;;;;25.33;8.00;;;;;;;;;;4991848;28;20053;-72
2022/02/01 10:24:41;;;;;;;29.20;9.73;;;;;;;;;;4991983;28;20100;-73
2022/02/01 10:27:09;;;;;;;32.45;11.57;;;;;;;;;;4991685;28;20029;-73
2022/02/01 10:29:35;;;;;;;31.77;10.38;;;;;;;;;;4989551;28;20085;-73
2022/02/01 10:32:27;;;;;;;25.27;7.22;;;;;;;;;;4990804;28;20516;-73
2022/02/01 10:34:53;;;;;;;;;;;;;;;;;;4994534;28;20065;-73
2022/02/01 10:37:19;;;;;;;25.48;8.48;;;;;;;;;;4994408;28;19945;-73
2022/02/01 10:39:46;;;;;;;31.75;8.60;;;;;;;;;;4994906;28;20097;-73
2022/02/01 10:42:13;;;;;;;26.33;6.30;;;;;;;;;;4994899;28;20459;-73
2022/02/01 10:44:58;;;;;;;27.95;5.75;;;;;;;;;;4995069;28;20033;-73
2022/02/01 10:47:35;;;;;;;30.27;9.70;;;;;;;;;;4994187;28;20048;-73
2022/02/01 10:50:06;;;;;;;26.88;8.20;;;;;;;;;;4995602;28;20034;-73
2022/02/01 10:52:44;;;;;;;32.92;6.10;;;;;;;;;;5023966;23;20050;-69
2022/02/01 10:55:10;;;;;;;29.42;8.48;;;;;;;;;;5014858;28;20045;-68
2022/02/01 10:57:36;;;;;;;20.00;4.55;;;;;;;;;;5014979;28;20037;-67
2022/02/01 11:00:04;;;;;;;31.98;7.70;;;;;;;;;;5013539;28;20050;-67
2022/02/01 11:02:30;;;;;;;21.40;5.90;;;;;;;;;;5014737;28;20113;-68
2022/02/01 11:04:57;;;;;;;24.63;8.65;;;;;;;;;;5014471;28;20026;-68
2022/02/01 11:07:24;;;;;;;25.02;6.35;;;;;;;;;;5014727;28;20017;-68
2022/02/01 11:09:57;;;;;;;26.85;6.38;;;;;;;;;;5014610;28;20493;-68
2022/02/01 11:12:33;;;;;;;21.55;6.22;;;;;;;;;;5013224;28;20021;-66
2022/02/01 11:14:59;;;;;;;26.50;7.10;;;;;;;;;;5014173;28;20014;-67
2022/02/01 11:17:25;;;;;;;26.63;5.43;;;;;;;;;;5013349;28;20112;-68
2022/02/01 11:19:53;;;;;;;27.75;9.40;;;;;;;;;;5014395;28;20053;-67
2022/02/01 11:22:22;;;;;;;16.73;3.65;;;;;;;;;;5014280;28;20403;-67
2022/02/01 11:25:06;;;;;;;28.67;6.68;;;;;;;;;;5013986;28;20091;-67
2022/02/01 11:27:46;;;;;;;18.45;4.80;;;;;;;;;;5014095;28;20084;-67
2022/02/01 11:30:13;;;;;;;14.52;4.07;;;;;;;;;;5014060;28;20105;-68
2022/02/01 11:32:49;;;;;;;37.20;10.55;;;;;;;;;;5012822;28;20034;-65
2022/02/01 11:35:21;;;;;;;18.67;5.10;;;;;;;;;;5013928;28;20026;-67
2022/02/01 11:37:50;;;;;;;25.52;7.68;;;;;;;;;;5013577;28;20061;-67
2022/02/01 11:40:17;;;;;;;30.38;8.63;;;;;;;;;;5013747;28;20026;-66
2022/02/01 11:42:54;;;;;;;20.52;6.30;;;;;;;;;;5012625;28;20022;-67
2022/02/01 11:45:47;;;;;;;24.17;6.22;;;;;;;;;;5013357;28;20179;-67
2022/02/01 11:48:23;;;;;;;21.63;5.53;;;;;;;;;;4998186;28;20034;-68
2022/02/01 11:50:51;;;;;;;21.05;6.47;;;;;;;;;;5013660;28;20032;-68
2022/02/01 11:53:21;;;;;;;27.17;6.72;;;;;;;;;;5013868;28;20036;-67
2022/02/01 11:55:49;;;;;;;23.38;5.97;;;;;;;;;;5013510;28;20021;-67
2022/02/01 11:58:26;;;;;;;22.75;7.00;;;;;;;;;;5013534;28;20118;-68
2022/02/01 12:00:52;;;;;;;21.83;4.65;;;;;;;;;;5013623;28;20025;-67
2022/02/01 12:03:20;;;;;;;16.85;4.28;;;;;;;;;;5012032;28;20051;-66
2022/02/01 12:05:53;;;;;;;20.20;5.57;;;;;;;;;;5013815;28;20025;-68
2022/02/01 12:08:20;;;;;;;16.02;5.78;;;;;;;;;;5013549;28;20109;-67
2022/02/01 12:10:47;;;;;;;16.23;5.18;;;;;;;;;;5013622;28;20029;-68
2022/02/01 12:13:14;;;;;;;18.95;4.20;;;;;;;;;;5013024;28;20076;-68
2022/02/01 12:15:41;;;;;;;12.70;4.43;;;;;;;;;;5013337;28;20029;-66
2022/02/01 12:18:08;;;;;;;17.48;5.35;;;;;;;;;;5013049;28;20038;-67
2022/02/01 12:20:36;;;;;;;11.27;2.92;;;;;;;;;;5013187;28;20037;-67
2022/02/01 12:23:07;;;;;;;13.18;4.07;;;;;;;;;;5013404;28;20030;-67
2022/02/01 12:25:33;;;;;;;18.63;5.20;;;;;;;;;;5013446;28;20033;-67
2022/02/01 12:27:59;;;;;;;21.67;6.50;;;;;;;;;;5012925;28;20030;-67
2022/02/01 12:30:25;;;;;;;17.60;3.55;;;;;;;;;;5013833;28;20024;-67
2022/02/01 12:32:57;;;;;;;22.70;5.57;;;;;;;;;;5012938;28;20447;-67
2022/02/01 12:35:33;;;;;;;20.48;3.70;;;;;;;;;;5012794;28;20037;-67
2022/02/01 12:38:09;;;;;;;18.67;6.00;;;;;;;;;;5012920;28;20479;-67
2022/02/01 12:40:39;;;;;;;17.75;4.32;;;;;;;;;;5012916;28;20040;-67
2022/02/01 12:43:12;;;;;;;19.55;4.25;;;;;;;;;;5011429;28;20404;-67
2022/02/01 12:45:55;;;;;;;11.02;3.28;;;;;;;;;;5012831;28;20025;-67
2022/02/01 12:48:21;;;;;;;12.32;3.70;;;;;;;;;;5012712;28;20036;-67
2022/02/01 12:50:58;;;;;;;11.18;3.38;;;;;;;;;;5012542;28;20076;-67
2022/02/01 12:53:28;;;;;;;19.13;6.75;;;;;;;;;;5012584;28;20034;-67
2022/02/01 12:55:55;;;;;;;21.70;4.80;;;;;;;;;;5012039;28;20049;-68
2022/02/01 12:58:21;;;;;;;19.75;4.30;;;;;;;;;;5011276;28;20395;-66
2022/02/01 13:00:49;;;;;;;19.02;5.95;;;;;;;;;;5012455;28;20034;-68
2022/02/01 13:03:15;;;;;;;7.50;2.45;;;;;;;;;;5012456;28;20022;-68
2022/02/01 13:05:41;;;;;;;15.93;5.47;;;;;;;;;;5012171;28;20033;-67
2022/02/01 13:21:16;;;;;;;18.23;6.63;;;;;;;;;;5012461;28;20026;-68
2022/02/01 13:23:46;;;;;;;18.05;5.15;;;;;;;;;;5011767;28;20104;-68
2022/02/01 13:26:12;;;;;;;16.80;4.28;;;;;;;;;;5011166;28;20653;-67
2022/02/01 13:28:42;;;;;;;14.70;4.28;;;;;;;;;;5012346;28;20022;-68
2022/02/01 13:31:12;;;;;;;15.77;5.82;;;;;;;;;;5011937;28;20022;-68
2022/02/01 13:33:47;;;;;;;14.15;3.83;;;;;;;;;;5010537;28;20029;-67
2022/02/01 13:36:13;;;;;;;9.75;3.78;;;;;;;;;;5011994;28;20091;-68
2022/02/01 13:38:56;;;;;;;19.48;5.43;;;;;;;;;;5011757;28;20026;-68
2022/02/01 13:41:25;;;;;;;17.13;5.50;;;;;;;;;;5011847;28;20026;-68
2022/02/01 13:43:53;;;;;;;10.77;3.20;;;;;;;;;;5011749;28;20138;-67
2022/02/01 13:46:19;;;;;;;11.60;3.28;;;;;;;;;;5011881;28;20029;-68
2022/02/01 13:48:45;;;;;;;14.23;4.03;;;;;;;;;;5010524;28;20313;-68
2022/02/01 13:51:12;;;;;;;13.93;4.65;;;;;;;;;;5011886;28;20022;-69
2022/02/01 13:53:38;;;;;;;16.85;5.28;;;;;;;;;;5011571;28;20117;-69
2022/02/01 13:56:06;;;;;;;11.35;3.35;;;;;;;;;;5011851;28;20061;-71
2022/02/01 13:58:33;;;;;;;13.00;3.35;;;;;;;;;;5010140;28;20691;-69
2022/02/01 14:01:00;;;;;;;17.88;5.03;;;;;;;;;;5011579;28;20032;-68
2022/02/01 14:03:36;;;;;;;11.63;4.65;;;;;;;;;;5011523;28;20435;-69
2022/02/01 14:14:29;;;;;;;9.50;3.10;;;;;;;;;;5015426;28;20523;-68
2022/02/01 14:34:57;;;;;;;6.20;3.13;;;;;;;;;;5014928;28;20386;-68
2022/02/01 14:37:37;;;;;;;7.07;3.95;;;;;;;;;;5015105;28;20026;-66
2022/02/01 14:43:16;;;;;;;8.63;3.63;;;;;;;;;;5015322;28;20041;-67
2022/02/01 14:45:40;;;;;;;9.60;4.85;;;;;;;;;;5015013;28;20092;-67
2022/02/01 14:48:06;;;;;;;11.27;3.38;;;;;;;;;;5015051;28;20022;-69
2022/02/01 14:50:32;;;;;;;10.57;3.83;;;;;;;;;;5014898;28;20022;-68
2022/02/01 14:52:58;;;;;;;7.13;2.53;;;;;;;;;;5014501;28;20026;-69
2022/02/01 14:55:33;;;;;;;5.80;3.25;;;;;;;;;;5014945;28;20383;-69
2022/02/01 15:03:50;;;;;;;4.90;2.78;;;;;;;;;;5014890;28;20108;-68
2022/02/01 15:06:58;;;;;;;6.47;2.92;;;;;;;;;;5014856;28;20022;-68
2022/02/01 15:12:15;;;;;;;7.40;2.50;;;;;;;;;;5014345;28;20164;-70
2022/02/01 15:14:41;;;;;;;10.00;3.85;;;;;;;;;;5012953;28;20535;-70
2022/02/01 15:17:08;;;;;;;6.53;3.33;;;;;;;;;;5012979;28;20087;-65
2022/02/01 15:19:34;;;;;;;2.92;1.70;;;;;;;;;;5013819;28;20030;-70
2022/02/01 15:22:00;;;;;;;5.90;2.97;;;;;;;;;;5014397;28;20041;-68
2022/02/01 15:24:26;;;;;;;5.85;2.10;;;;;;;;;;5012887;28;20120;-67
2022/02/01 15:26:52;;;;;;;5.82;2.65;;;;;;;;;;5014534;28;20065;-68
2022/02/01 15:29:18;;;;;;;5.70;2.05;;;;;;;;;;5013713;28;20022;-68
2022/02/01 15:31:44;;;;;;;5.13;2.35;;;;;;;;;;5012472;28;20499;-68
2022/02/01 15:34:10;;;;;;;5.80;2.22;;;;;;;;;;5013969;28;20032;-67
2022/02/01 15:36:37;;;;;;;8.30;2.30;;;;;;;;;;5008794;28;20023;-68
2022/02/01 15:58:11;;;;;;;4.80;2.15;;;;;;;;;;4993519;28;20026;-69
2022/02/01 16:00:39;;;;;;;6.13;1.75;;;;;;;;;;5009179;28;20061;-69
2022/02/01 16:03:20;;;;;;;3.47;1.50;;;;;;;;;;5027937;28;20080;-69
2022/02/01 16:05:46;;;;;;;4.32;1.27;;;;;;;;;;5013202;28;20088;-68
2022/02/01 16:08:24;;;;;;;6.80;2.20;;;;;;;;;;5017456;28;20029;-68
2022/02/01 16:10:56;;;;;;;5.13;2.63;;;;;;;;;;5033173;28;20018;-67
2022/02/01 16:13:33;;;;;;;3.50;1.92;;;;;;;;;;5032624;28;20025;-67
2022/02/01 16:15:59;;;;;;;5.72;1.77;;;;;;;;;;5032876;28;20482;-71
2022/02/01 16:18:25;;;;;;;6.75;2.42;;;;;;;;;;5014289;28;20022;-68
2022/02/01 16:20:51;;;;;;;3.55;1.85;;;;;;;;;;5013200;28;20115;-67
2022/02/01 16:23:18;;;;;;;5.07;2.00;;;;;;;;;;5012713;28;20030;-66
2022/02/01 16:25:44;;;;;;;5.63;2.40;;;;;;;;;;5013089;28;20483;-69
2022/02/01 16:28:10;;;;;;;4.18;1.92;;;;;;;;;;5021911;28;20034;-70
2022/02/01 16:30:37;;;;;;;7.00;2.70;;;;;;;;;;5020544;28;20041;-69
2022/02/01 16:33:03;;;;;;;2.95;1.55;;;;;;;;;;5032488;28;20032;-67
2022/02/01 16:35:29;;;;;;;4.60;1.60;;;;;;;;;;5018648;28;20056;-67
2022/02/01 16:37:55;;;;;;;5.63;1.75;;;;;;;;;;5012519;28;20057;-64
2022/02/01 16:40:24;;;;;;;4.25;1.50;;;;;;;;;;5013303;28;20022;-65
2022/02/01 16:42:50;;;;;;;8.30;2.67;;;;;;;;;;5017140;28;20063;-67
2022/02/01 16:45:19;;;;;;;5.00;1.55;;;;;;;;;;5032906;28;20511;-67
2022/02/01 16:47:45;;;;;;;1.38;1.25;;;;;;;;;;5032653;28;20018;-69
2022/02/01 16:50:13;;;;;;;2.83;1.83;;;;;;;;;;5031089;28;20032;-69
2022/02/01 16:52:45;;;;;;;3.53;1.70;;;;;;;;;;5042458;23;20067;-72
2022/02/01 16:55:18;;;;;;;5.13;2.53;;;;;;;;;;5012951;28;20487;-71
2022/02/01 16:57:50;;;;;;;5.75;1.98;;;;;;;;;;5012832;28;20032;-71
2022/02/01 17:00:18;;;;;;;2.78;1.88;;;;;;;;;;5011324;28;20105;-72
2022/02/01 17:02:44;;;;;;;9.23;2.80;;;;;;;;;;5010479;28;20034;-74
2022/02/01 17:05:11;;;;;;;3.40;1.58;;;;;;;;;;5011031;28;20032;-73
2022/02/01 17:07:37;;;;;;;13.23;3.05;;;;;;;;;;5011402;28;20049;-71